sensor_id;sensor_type;location;lat;lon;timestamp;P1;durP1;ratioP1;P2;durP2;ratioP2
50341;SDS011;76053;42.682;23.286;2024-02-23T00:01:56;561.97;;;461.17;;
50341;SDS011;76053;42.682;23.286;2024-02-23T00:04:57;467.27;;;377.42;;
50341;SDS011;76053;42.682;23.286;2024-02-23T00:07:57;378.83;;;301.98;;
50341;SDS011;76053;42.682;23.286;2024-02-23T00:10:58;282.02;;;225.43;;
50341;SDS011;76053;42.682;23.286;2024-02-23T00:13:58;209.70;;;157.82;;
50341;SDS011;76053;42.682;23.286;2024-02-23T00:16:59;154.63;;;112.93;;
50341;SDS011;76053;42.682;23.286;2024-02-23T00:19:59;107.38;;;77.63;;
50341;SDS011;76053;42.682;23.286;2024-02-23T00:23:01;81.78;;;58.50;;
50341;SDS011;76053;42.682;23.286;2024-02-23T00:26:02;68.72;;;43.33;;
50341;SDS011;76053;42.682;23.286;2024-02-23T00:29:02;57.15;;;38.55;;
50341;SDS011;76053;42.682;23.286;2024-02-23T00:32:03;48.70;;;34.70;;
50341;SDS011;76053;42.682;23.286;2024-02-23T00:35:03;46.78;;;32.50;;
50341;SDS011;76053;42.682;23.286;2024-02-23T00:38:04;47.38;;;28.63;;
50341;SDS011;76053;42.682;23.286;2024-02-23T00:41:05;43.35;;;28.48;;
50341;SDS011;76053;42.682;23.286;2024-02-23T00:44:05;39.92;;;26.48;;
50341;SDS011;76053;42.682;23.286;2024-02-23T00:47:06;43.08;;;26.67;;
50341;SDS011;76053;42.682;23.286;2024-02-23T00:50:06;35.50;;;23.65;;
50341;SDS011;76053;42.682;23.286;2024-02-23T00:53:07;39.80;;;22.90;;
50341;SDS011;76053;42.682;23.286;2024-02-23T00:56:07;34.00;;;22.13;;
50341;SDS011;76053;42.682;23.286;2024-02-23T00:59:07;35.88;;;22.13;;
50341;SDS011;76053;42.682;23.286;2024-02-23T01:02:08;34.75;;;22.27;;
50341;SDS011;76053;42.682;23.286;2024-02-23T01:05:08;34.58;;;22.13;;
50341;SDS011;76053;42.682;23.286;2024-02-23T01:08:09;31.83;;;20.90;;
50341;SDS011;76053;42.682;23.286;2024-02-23T01:11:09;36.20;;;21.35;;
50341;SDS011;76053;42.682;23.286;2024-02-23T01:14:09;31.80;;;21.20;;
50341;SDS011;76053;42.682;23.286;2024-02-23T01:17:10;31.40;;;21.23;;
50341;SDS011;76053;42.682;23.286;2024-02-23T01:20:10;30.40;;;19.25;;
50341;SDS011;76053;42.682;23.286;2024-02-23T01:23:11;31.50;;;20.55;;
50341;SDS011;76053;42.682;23.286;2024-02-23T01:26:11;27.33;;;18.60;;
50341;SDS011;76053;42.682;23.286;2024-02-23T01:29:11;30.35;;;18.20;;
50341;SDS011;76053;42.682;23.286;2024-02-23T01:32:12;25.65;;;17.33;;
50341;SDS011;76053;42.682;23.286;2024-02-23T01:35:12;29.13;;;18.88;;
50341;SDS011;76053;42.682;23.286;2024-02-23T01:38:13;25.73;;;18.00;;
50341;SDS011;76053;42.682;23.286;2024-02-23T01:41:13;28.50;;;18.67;;
50341;SDS011;76053;42.682;23.286;2024-02-23T01:44:13;25.58;;;18.52;;
50341;SDS011;76053;42.682;23.286;2024-02-23T01:47:14;26.27;;;19.05;;
50341;SDS011;76053;42.682;23.286;2024-02-23T01:50:15;26.38;;;17.55;;
50341;SDS011;76053;42.682;23.286;2024-02-23T01:53:16;26.73;;;17.73;;
50341;SDS011;76053;42.682;23.286;2024-02-23T01:56:17;28.52;;;17.95;;
50341;SDS011;76053;42.682;23.286;2024-02-23T01:59:19;25.92;;;17.20;;
50341;SDS011;76053;42.682;23.286;2024-02-23T02:02:20;24.55;;;17.58;;
50341;SDS011;76053;42.682;23.286;2024-02-23T02:05:20;23.55;;;16.77;;
50341;SDS011;76053;42.682;23.286;2024-02-23T02:08:21;24.20;;;15.93;;
50341;SDS011;76053;42.682;23.286;2024-02-23T02:11:21;25.75;;;16.67;;
50341;SDS011;76053;42.682;23.286;2024-02-23T02:14:22;23.33;;;16.00;;
50341;SDS011;76053;42.682;23.286;2024-02-23T02:17:22;20.80;;;15.60;;
50341;SDS011;76053;42.682;23.286;2024-02-23T02:20:25;22.10;;;15.07;;
50341;SDS011;76053;42.682;23.286;2024-02-23T02:23:28;23.25;;;15.48;;
50341;SDS011;76053;42.682;23.286;2024-02-23T02:26:28;19.65;;;14.02;;
50341;SDS011;76053;42.682;23.286;2024-02-23T02:29:29;22.15;;;15.57;;
50341;SDS011;76053;42.682;23.286;2024-02-23T02:32:29;19.02;;;14.25;;
50341;SDS011;76053;42.682;23.286;2024-02-23T02:35:30;23.13;;;15.68;;
50341;SDS011;76053;42.682;23.286;2024-02-23T02:38:30;20.27;;;14.80;;
50341;SDS011;76053;42.682;23.286;2024-02-23T02:41:31;16.65;;;14.55;;
50341;SDS011;76053;42.682;23.286;2024-02-23T02:44:31;21.67;;;16.30;;
50341;SDS011;76053;42.682;23.286;2024-02-23T02:47:31;20.15;;;15.35;;
50341;SDS011;76053;42.682;23.286;2024-02-23T02:50:32;21.17;;;14.98;;
50341;SDS011;76053;42.682;23.286;2024-02-23T02:53:32;18.38;;;14.10;;
50341;SDS011;76053;42.682;23.286;2024-02-23T02:56:32;19.58;;;14.43;;
50341;SDS011;76053;42.682;23.286;2024-02-23T02:59:35;19.70;;;14.98;;
50341;SDS011;76053;42.682;23.286;2024-02-23T03:02:36;19.75;;;14.02;;
50341;SDS011;76053;42.682;23.286;2024-02-23T03:05:36;16.95;;;13.38;;
50341;SDS011;76053;42.682;23.286;2024-02-23T03:08:37;17.52;;;12.55;;
50341;SDS011;76053;42.682;23.286;2024-02-23T03:11:37;18.92;;;13.38;;
50341;SDS011;76053;42.682;23.286;2024-02-23T03:14:37;18.42;;;13.45;;
50341;SDS011;76053;42.682;23.286;2024-02-23T03:17:38;15.68;;;12.65;;
50341;SDS011;76053;42.682;23.286;2024-02-23T03:20:38;15.63;;;12.02;;
50341;SDS011;76053;42.682;23.286;2024-02-23T03:23:39;14.52;;;11.85;;
50341;SDS011;76053;42.682;23.286;2024-02-23T03:26:39;14.80;;;12.32;;
50341;SDS011;76053;42.682;23.286;2024-02-23T03:29:39;17.20;;;12.77;;
50341;SDS011;76053;42.682;23.286;2024-02-23T03:32:40;18.30;;;13.00;;
50341;SDS011;76053;42.682;23.286;2024-02-23T03:35:40;18.17;;;13.43;;
50341;SDS011;76053;42.682;23.286;2024-02-23T03:38:41;16.92;;;12.90;;
50341;SDS011;76053;42.682;23.286;2024-02-23T03:41:41;16.10;;;12.63;;
50341;SDS011;76053;42.682;23.286;2024-02-23T03:44:41;14.18;;;11.25;;
50341;SDS011;76053;42.682;23.286;2024-02-23T03:47:42;14.98;;;12.00;;
50341;SDS011;76053;42.682;23.286;2024-02-23T03:50:42;14.80;;;12.30;;
50341;SDS011;76053;42.682;23.286;2024-02-23T03:53:42;15.38;;;11.75;;
50341;SDS011;76053;42.682;23.286;2024-02-23T03:56:43;14.32;;;11.77;;
50341;SDS011;76053;42.682;23.286;2024-02-23T03:59:53;15.63;;;11.75;;
50341;SDS011;76053;42.682;23.286;2024-02-23T04:02:54;13.07;;;11.48;;
50341;SDS011;76053;42.682;23.286;2024-02-23T04:05:54;12.52;;;11.15;;
50341;SDS011;76053;42.682;23.286;2024-02-23T04:08:55;11.80;;;10.48;;
50341;SDS011;76053;42.682;23.286;2024-02-23T04:11:55;14.05;;;11.18;;
50341;SDS011;76053;42.682;23.286;2024-02-23T04:14:56;12.88;;;10.05;;
50341;SDS011;76053;42.682;23.286;2024-02-23T04:17:56;13.18;;;10.60;;
50341;SDS011;76053;42.682;23.286;2024-02-23T04:20:57;12.70;;;10.82;;
50341;SDS011;76053;42.682;23.286;2024-02-23T04:23:57;13.02;;;10.63;;
50341;SDS011;76053;42.682;23.286;2024-02-23T04:26:58;12.27;;;10.13;;
50341;SDS011;76053;42.682;23.286;2024-02-23T04:29:58;12.65;;;9.68;;
50341;SDS011;76053;42.682;23.286;2024-02-23T04:32:59;12.57;;;10.85;;
50341;SDS011;76053;42.682;23.286;2024-02-23T04:35:59;12.90;;;10.23;;
50341;SDS011;76053;42.682;23.286;2024-02-23T04:38:59;12.38;;;9.48;;
50341;SDS011;76053;42.682;23.286;2024-02-23T04:42:00;12.75;;;9.98;;
50341;SDS011;76053;42.682;23.286;2024-02-23T04:45:00;14.68;;;10.75;;
50341;SDS011;76053;42.682;23.286;2024-02-23T04:48:01;11.55;;;10.07;;
50341;SDS011;76053;42.682;23.286;2024-02-23T04:51:01;12.93;;;10.15;;
50341;SDS011;76053;42.682;23.286;2024-02-23T04:54:01;11.85;;;10.63;;
50341;SDS011;76053;42.682;23.286;2024-02-23T04:57:02;13.23;;;11.10;;
50341;SDS011;76053;42.682;23.286;2024-02-23T05:00:02;10.65;;;9.45;;
50341;SDS011;76053;42.682;23.286;2024-02-23T05:03:03;11.43;;;9.88;;
50341;SDS011;76053;42.682;23.286;2024-02-23T05:06:05;12.57;;;10.18;;
50341;SDS011;76053;42.682;23.286;2024-02-23T05:09:06;11.95;;;10.70;;
50341;SDS011;76053;42.682;23.286;2024-02-23T05:12:07;10.88;;;9.50;;
50341;SDS011;76053;42.682;23.286;2024-02-23T05:15:08;11.32;;;8.90;;
50341;SDS011;76053;42.682;23.286;2024-02-23T05:18:09;34.38;;;15.50;;
50341;SDS011;76053;42.682;23.286;2024-02-23T05:21:09;112.10;;;37.88;;
50341;SDS011;76053;42.682;23.286;2024-02-23T05:24:10;122.45;;;42.63;;
50341;SDS011;76053;42.682;23.286;2024-02-23T05:27:11;111.10;;;37.53;;
50341;SDS011;76053;42.682;23.286;2024-02-23T05:30:12;94.88;;;35.63;;
50341;SDS011;76053;42.682;23.286;2024-02-23T05:33:12;99.00;;;36.95;;
50341;SDS011;76053;42.682;23.286;2024-02-23T05:36:13;84.05;;;37.28;;
50341;SDS011;76053;42.682;23.286;2024-02-23T05:39:13;94.03;;;34.20;;
50341;SDS011;76053;42.682;23.286;2024-02-23T05:42:14;86.65;;;33.17;;
50341;SDS011;76053;42.682;23.286;2024-02-23T05:45:14;87.38;;;31.48;;
50341;SDS011;76053;42.682;23.286;2024-02-23T05:48:15;74.30;;;31.20;;
50341;SDS011;76053;42.682;23.286;2024-02-23T05:51:15;76.32;;;31.00;;
50341;SDS011;76053;42.682;23.286;2024-02-23T05:54:16;68.40;;;30.13;;
50341;SDS011;76053;42.682;23.286;2024-02-23T05:57:16;57.47;;;27.42;;
50341;SDS011;76053;42.682;23.286;2024-02-23T06:00:17;48.10;;;22.60;;
50341;SDS011;76053;42.682;23.286;2024-02-23T06:03:17;38.92;;;20.75;;
50341;SDS011;76053;42.682;23.286;2024-02-23T06:06:18;42.90;;;20.52;;
50341;SDS011;76053;42.682;23.286;2024-02-23T06:09:18;47.58;;;23.05;;
50341;SDS011;76053;42.682;23.286;2024-02-23T06:12:19;45.08;;;20.90;;
50341;SDS011;76053;42.682;23.286;2024-02-23T06:15:19;46.17;;;21.83;;
50341;SDS011;76053;42.682;23.286;2024-02-23T06:18:19;40.03;;;22.17;;
50341;SDS011;76053;42.682;23.286;2024-02-23T06:21:20;44.10;;;20.60;;
50341;SDS011;76053;42.682;23.286;2024-02-23T06:24:20;37.70;;;19.85;;
50341;SDS011;76053;42.682;23.286;2024-02-23T06:27:21;34.70;;;19.83;;
50341;SDS011;76053;42.682;23.286;2024-02-23T06:30:21;1091.57;;;791.63;;
50341;SDS011;76053;42.682;23.286;2024-02-23T06:33:21;1090.18;;;779.10;;
50341;SDS011;76053;42.682;23.286;2024-02-23T06:36:22;650.20;;;513.85;;
50341;SDS011;76053;42.682;23.286;2024-02-23T06:39:22;450.23;;;348.40;;
50341;SDS011;76053;42.682;23.286;2024-02-23T06:42:23;287.67;;;205.57;;
50341;SDS011;76053;42.682;23.286;2024-02-23T06:45:23;179.43;;;124.43;;
50341;SDS011;76053;42.682;23.286;2024-02-23T06:48:23;123.15;;;77.55;;
50341;SDS011;76053;42.682;23.286;2024-02-23T06:51:25;81.40;;;48.58;;
50341;SDS011;76053;42.682;23.286;2024-02-23T06:54:25;121.53;;;99.07;;
50341;SDS011;76053;42.682;23.286;2024-02-23T06:57:25;1122.13;;;794.13;;
50341;SDS011;76053;42.682;23.286;2024-02-23T07:00:26;466.13;;;366.83;;
50341;SDS011;76053;42.682;23.286;2024-02-23T07:03:26;736.10;;;586.22;;
50341;SDS011;76053;42.682;23.286;2024-02-23T07:06:26;504.67;;;408.17;;
50341;SDS011;76053;42.682;23.286;2024-02-23T07:09:27;336.40;;;250.75;;
50341;SDS011;76053;42.682;23.286;2024-02-23T07:12:27;580.63;;;484.30;;
50341;SDS011;76053;42.682;23.286;2024-02-23T07:15:28;782.65;;;614.35;;
50341;SDS011;76053;42.682;23.286;2024-02-23T07:18:28;1217.00;;;839.17;;
50341;SDS011;76053;42.682;23.286;2024-02-23T07:21:29;903.22;;;666.58;;
50341;SDS011;76053;42.682;23.286;2024-02-23T07:24:29;1243.07;;;820.70;;
50341;SDS011;76053;42.682;23.286;2024-02-23T07:27:30;1999.90;;;999.90;;
50341;SDS011;76053;42.682;23.286;2024-02-23T07:30:30;1468.38;;;899.67;;
50341;SDS011;76053;42.682;23.286;2024-02-23T07:33:30;1062.88;;;734.70;;
50341;SDS011;76053;42.682;23.286;2024-02-23T07:36:31;969.15;;;682.55;;
50341;SDS011;76053;42.682;23.286;2024-02-23T07:39:31;894.10;;;635.10;;
50341;SDS011;76053;42.682;23.286;2024-02-23T07:42:32;806.60;;;576.75;;
50341;SDS011;76053;42.682;23.286;2024-02-23T07:45:33;721.08;;;532.03;;
50341;SDS011;76053;42.682;23.286;2024-02-23T07:48:33;647.78;;;474.67;;
50341;SDS011;76053;42.682;23.286;2024-02-23T07:51:33;573.45;;;419.42;;
50341;SDS011;76053;42.682;23.286;2024-02-23T07:54:34;508.23;;;369.08;;
50341;SDS011;76053;42.682;23.286;2024-02-23T07:57:34;1642.78;;;933.53;;
50341;SDS011;76053;42.682;23.286;2024-02-23T08:00:34;785.13;;;600.22;;
50341;SDS011;76053;42.682;23.286;2024-02-23T08:03:35;535.92;;;411.88;;
50341;SDS011;76053;42.682;23.286;2024-02-23T08:06:35;639.45;;;516.45;;
50341;SDS011;76053;42.682;23.286;2024-02-23T08:09:35;464.00;;;352.23;;
50341;SDS011;76053;42.682;23.286;2024-02-23T08:12:36;866.95;;;695.88;;
50341;SDS011;76053;42.682;23.286;2024-02-23T08:15:36;1116.88;;;796.55;;
50341;SDS011;76053;42.682;23.286;2024-02-23T08:18:37;1074.78;;;782.60;;
50341;SDS011;76053;42.682;23.286;2024-02-23T08:21:37;667.08;;;534.22;;
50341;SDS011;76053;42.682;23.286;2024-02-23T08:24:37;607.05;;;488.52;;
50341;SDS011;76053;42.682;23.286;2024-02-23T08:27:38;543.55;;;428.77;;
50341;SDS011;76053;42.682;23.286;2024-02-23T08:30:40;1080.03;;;778.95;;
50341;SDS011;76053;42.682;23.286;2024-02-23T08:33:40;597.80;;;478.50;;
50341;SDS011;76053;42.682;23.286;2024-02-23T08:36:41;504.98;;;401.40;;
50341;SDS011;76053;42.682;23.286;2024-02-23T08:39:41;625.33;;;523.78;;
50341;SDS011;76053;42.682;23.286;2024-02-23T08:42:41;939.10;;;717.58;;
50341;SDS011;76053;42.682;23.286;2024-02-23T08:45:42;1107.00;;;813.30;;
50341;SDS011;76053;42.682;23.286;2024-02-23T08:48:42;1151.68;;;823.60;;
50341;SDS011;76053;42.682;23.286;2024-02-23T08:51:43;646.75;;;544.08;;
50341;SDS011;76053;42.682;23.286;2024-02-23T08:54:43;516.60;;;422.45;;
50341;SDS011;76053;42.682;23.286;2024-02-23T08:57:43;460.08;;;376.83;;
50341;SDS011;76053;42.682;23.286;2024-02-23T09:00:44;1839.35;;;995.95;;
50341;SDS011;76053;42.682;23.286;2024-02-23T09:03:44;1489.60;;;923.05;;
50341;SDS011;76053;42.682;23.286;2024-02-23T09:06:44;1333.80;;;864.13;;
50341;SDS011;76053;42.682;23.286;2024-02-23T09:09:45;992.38;;;733.80;;
50341;SDS011;76053;42.682;23.286;2024-02-23T09:12:46;910.17;;;679.38;;
50341;SDS011;76053;42.682;23.286;2024-02-23T09:15:46;810.90;;;631.05;;
50341;SDS011;76053;42.682;23.286;2024-02-23T09:18:47;748.22;;;589.65;;
50341;SDS011;76053;42.682;23.286;2024-02-23T09:21:47;652.78;;;519.08;;
50341;SDS011;76053;42.682;23.286;2024-02-23T09:24:47;566.25;;;449.48;;
50341;SDS011;76053;42.682;23.286;2024-02-23T09:27:48;754.55;;;614.88;;
50341;SDS011;76053;42.682;23.286;2024-02-23T09:30:48;586.42;;;494.00;;
50341;SDS011;76053;42.682;23.286;2024-02-23T09:33:48;492.77;;;408.23;;
50341;SDS011;76053;42.682;23.286;2024-02-23T09:36:49;384.15;;;303.27;;
50341;SDS011;76053;42.682;23.286;2024-02-23T09:39:49;304.42;;;236.48;;
50341;SDS011;76053;42.682;23.286;2024-02-23T09:42:51;155.98;;;116.80;;
50341;SDS011;76053;42.682;23.286;2024-02-23T09:45:56;104.78;;;73.22;;
50341;SDS011;76053;42.682;23.286;2024-02-23T09:48:56;45.20;;;29.48;;
50341;SDS011;76053;42.682;23.286;2024-02-23T09:51:58;27.63;;;21.17;;
50341;SDS011;76053;42.682;23.286;2024-02-23T09:54:59;25.77;;;18.02;;
50341;SDS011;76053;42.682;23.286;2024-02-23T09:57:59;23.65;;;16.77;;
50341;SDS011;76053;42.682;23.286;2024-02-23T10:01:04;366.73;;;326.38;;
50341;SDS011;76053;42.682;23.286;2024-02-23T10:04:23;104.63;;;82.63;;
50341;SDS011;76053;42.682;23.286;2024-02-23T10:07:26;40.53;;;31.77;;
50341;SDS011;76053;42.682;23.286;2024-02-23T10:10:30;28.52;;;15.57;;
50341;SDS011;76053;42.682;23.286;2024-02-23T10:13:32;16.80;;;12.40;;
50341;SDS011;76053;42.682;23.286;2024-02-23T10:16:33;14.57;;;11.75;;
50341;SDS011;76053;42.682;23.286;2024-02-23T10:19:34;31.20;;;27.08;;
50341;SDS011;76053;42.682;23.286;2024-02-23T10:22:35;481.27;;;403.42;;
50341;SDS011;76053;42.682;23.286;2024-02-23T10:25:35;158.80;;;122.45;;
50341;SDS011;76053;42.682;23.286;2024-02-23T10:28:36;107.20;;;80.68;;
50341;SDS011;76053;42.682;23.286;2024-02-23T10:31:37;114.85;;;86.65;;
50341;SDS011;76053;42.682;23.286;2024-02-23T10:34:38;96.57;;;62.17;;
50341;SDS011;76053;42.682;23.286;2024-02-23T10:37:43;49.95;;;34.67;;
50341;SDS011;76053;42.682;23.286;2024-02-23T10:40:43;24.50;;;18.10;;
50341;SDS011;76053;42.682;23.286;2024-02-23T10:43:46;276.83;;;247.57;;
50341;SDS011;76053;42.682;23.286;2024-02-23T10:46:48;718.60;;;594.30;;
50341;SDS011;76053;42.682;23.286;2024-02-23T10:49:50;1457.50;;;934.08;;
50341;SDS011;76053;42.682;23.286;2024-02-23T10:52:51;959.08;;;730.97;;
50341;SDS011;76053;42.682;23.286;2024-02-23T10:55:56;821.55;;;653.47;;
50341;SDS011;76053;42.682;23.286;2024-02-23T10:58:57;1038.90;;;776.63;;
50341;SDS011;76053;42.682;23.286;2024-02-23T11:01:57;745.30;;;607.75;;
50341;SDS011;76053;42.682;23.286;2024-02-23T11:05:00;655.35;;;539.28;;
50341;SDS011;76053;42.682;23.286;2024-02-23T11:08:01;850.22;;;674.85;;
50341;SDS011;76053;42.682;23.286;2024-02-23T11:11:07;1644.90;;;968.22;;
50341;SDS011;76053;42.682;23.286;2024-02-23T11:14:09;1173.97;;;820.35;;
50341;SDS011;76053;42.682;23.286;2024-02-23T11:17:09;1178.32;;;816.80;;
50341;SDS011;76053;42.682;23.286;2024-02-23T11:20:18;1123.90;;;768.10;;
50341;SDS011;76053;42.682;23.286;2024-02-23T11:23:18;1442.00;;;891.60;;
50341;SDS011;76053;42.682;23.286;2024-02-23T11:26:19;1388.50;;;868.10;;
50341;SDS011;76053;42.682;23.286;2024-02-23T11:29:25;1015.22;;;714.03;;
50341;SDS011;76053;42.682;23.286;2024-02-23T11:32:35;867.05;;;657.75;;
50341;SDS011;76053;42.682;23.286;2024-02-23T11:35:36;812.05;;;606.38;;
50341;SDS011;76053;42.682;23.286;2024-02-23T11:38:46;885.72;;;668.45;;
50341;SDS011;76053;42.682;23.286;2024-02-23T11:41:50;798.60;;;605.95;;
50341;SDS011;76053;42.682;23.286;2024-02-23T11:44:50;599.50;;;473.35;;
50341;SDS011;76053;42.682;23.286;2024-02-23T11:47:52;509.90;;;394.25;;
50341;SDS011;76053;42.682;23.286;2024-02-23T11:50:52;395.88;;;294.65;;
50341;SDS011;76053;42.682;23.286;2024-02-23T11:53:53;90.82;;;58.88;;
50341;SDS011;76053;42.682;23.286;2024-02-23T11:56:55;210.23;;;161.23;;
50341;SDS011;76053;42.682;23.286;2024-02-23T11:59:56;137.00;;;100.40;;
50341;SDS011;76053;42.682;23.286;2024-02-23T12:02:56;460.10;;;371.15;;
50341;SDS011;76053;42.682;23.286;2024-02-23T12:05:59;460.65;;;371.10;;
50341;SDS011;76053;42.682;23.286;2024-02-23T12:09:01;479.88;;;400.33;;
50341;SDS011;76053;42.682;23.286;2024-02-23T12:12:01;617.60;;;520.25;;
50341;SDS011;76053;42.682;23.286;2024-02-23T12:15:02;845.60;;;664.80;;
50341;SDS011;76053;42.682;23.286;2024-02-23T12:18:03;743.97;;;606.92;;
50341;SDS011;76053;42.682;23.286;2024-02-23T12:21:04;719.97;;;580.22;;
50341;SDS011;76053;42.682;23.286;2024-02-23T12:24:05;802.03;;;636.45;;
50341;SDS011;76053;42.682;23.286;2024-02-23T12:27:06;816.33;;;645.33;;
50341;SDS011;76053;42.682;23.286;2024-02-23T12:30:13;713.88;;;585.97;;
50341;SDS011;76053;42.682;23.286;2024-02-23T12:33:15;647.72;;;528.05;;
50341;SDS011;76053;42.682;23.286;2024-02-23T12:36:16;581.97;;;475.13;;
50341;SDS011;76053;42.682;23.286;2024-02-23T12:39:16;524.10;;;420.17;;
50341;SDS011;76053;42.682;23.286;2024-02-23T12:42:17;443.02;;;347.13;;
50341;SDS011;76053;42.682;23.286;2024-02-23T12:45:18;449.52;;;368.80;;
50341;SDS011;76053;42.682;23.286;2024-02-23T12:48:18;341.75;;;272.08;;
50341;SDS011;76053;42.682;23.286;2024-02-23T12:51:19;283.45;;;222.25;;
50341;SDS011;76053;42.682;23.286;2024-02-23T12:54:24;204.93;;;155.45;;
50341;SDS011;76053;42.682;23.286;2024-02-23T12:57:25;148.75;;;108.75;;
50341;SDS011;76053;42.682;23.286;2024-02-23T13:00:25;98.03;;;66.47;;
50341;SDS011;76053;42.682;23.286;2024-02-23T13:03:26;55.22;;;37.83;;
50341;SDS011;76053;42.682;23.286;2024-02-23T13:06:26;35.70;;;21.80;;
50341;SDS011;76053;42.682;23.286;2024-02-23T13:09:27;15.43;;;13.27;;
50341;SDS011;76053;42.682;23.286;2024-02-23T13:12:27;14.30;;;11.77;;
50341;SDS011;76053;42.682;23.286;2024-02-23T13:15:27;10.98;;;9.18;;
50341;SDS011;76053;42.682;23.286;2024-02-23T13:18:28;9.82;;;8.82;;
50341;SDS011;76053;42.682;23.286;2024-02-23T13:21:28;8.10;;;7.38;;
50341;SDS011;76053;42.682;23.286;2024-02-23T13:24:28;8.63;;;7.78;;
50341;SDS011;76053;42.682;23.286;2024-02-23T13:27:29;7.57;;;6.88;;
50341;SDS011;76053;42.682;23.286;2024-02-23T13:30:29;7.43;;;6.65;;
50341;SDS011;76053;42.682;23.286;2024-02-23T13:33:30;7.53;;;6.72;;
50341;SDS011;76053;42.682;23.286;2024-02-23T13:36:30;452.55;;;401.27;;
50341;SDS011;76053;42.682;23.286;2024-02-23T13:39:31;1882.78;;;999.90;;
50341;SDS011;76053;42.682;23.286;2024-02-23T13:42:31;984.65;;;733.53;;
50341;SDS011;76053;42.682;23.286;2024-02-23T13:45:32;753.20;;;601.80;;
50341;SDS011;76053;42.682;23.286;2024-02-23T13:48:33;623.53;;;518.90;;
50341;SDS011;76053;42.682;23.286;2024-02-23T13:51:33;575.75;;;473.90;;
50341;SDS011;76053;42.682;23.286;2024-02-23T13:54:33;857.83;;;669.72;;
50341;SDS011;76053;42.682;23.286;2024-02-23T13:57:34;551.30;;;457.92;;
50341;SDS011;76053;42.682;23.286;2024-02-23T14:00:34;394.23;;;315.38;;
50341;SDS011;76053;42.682;23.286;2024-02-23T14:03:35;430.75;;;345.70;;
50341;SDS011;76053;42.682;23.286;2024-02-23T14:06:35;918.67;;;707.88;;
50341;SDS011;76053;42.682;23.286;2024-02-23T14:09:36;513.20;;;424.83;;
50341;SDS011;76053;42.682;23.286;2024-02-23T14:12:36;496.98;;;411.45;;
50341;SDS011;76053;42.682;23.286;2024-02-23T14:15:36;423.90;;;350.20;;
50341;SDS011;76053;42.682;23.286;2024-02-23T14:18:37;366.15;;;281.42;;
50341;SDS011;76053;42.682;23.286;2024-02-23T14:21:37;461.80;;;365.13;;
50341;SDS011;76053;42.682;23.286;2024-02-23T14:24:37;243.45;;;189.48;;
50341;SDS011;76053;42.682;23.286;2024-02-23T14:27:38;152.02;;;113.45;;
50341;SDS011;76053;42.682;23.286;2024-02-23T14:30:38;106.00;;;77.13;;
50341;SDS011;76053;42.682;23.286;2024-02-23T14:33:39;72.80;;;49.78;;
50341;SDS011;76053;42.682;23.286;2024-02-23T14:36:39;45.17;;;30.42;;
50341;SDS011;76053;42.682;23.286;2024-02-23T14:39:40;23.50;;;17.17;;
50341;SDS011;76053;42.682;23.286;2024-02-23T14:42:40;524.47;;;443.15;;
50341;SDS011;76053;42.682;23.286;2024-02-23T14:45:41;150.50;;;120.57;;
50341;SDS011;76053;42.682;23.286;2024-02-23T14:48:41;79.20;;;63.72;;
50341;SDS011;76053;42.682;23.286;2024-02-23T14:51:41;52.78;;;42.38;;
50341;SDS011;76053;42.682;23.286;2024-02-23T14:54:42;138.55;;;105.30;;
50341;SDS011;76053;42.682;23.286;2024-02-23T14:57:42;774.20;;;578.60;;
50341;SDS011;76053;42.682;23.286;2024-02-23T15:00:43;316.10;;;226.40;;
50341;SDS011;76053;42.682;23.286;2024-02-23T15:03:43;1170.80;;;755.40;;
50341;SDS011;76053;42.682;23.286;2024-02-23T15:06:43;623.95;;;459.95;;
50341;SDS011;76053;42.682;23.286;2024-02-23T15:09:44;515.72;;;391.98;;
50341;SDS011;76053;42.682;23.286;2024-02-23T15:12:44;440.92;;;328.42;;
50341;SDS011;76053;42.682;23.286;2024-02-23T15:15:45;862.60;;;633.22;;
50341;SDS011;76053;42.682;23.286;2024-02-23T15:18:45;964.65;;;665.47;;
50341;SDS011;76053;42.682;23.286;2024-02-23T15:21:46;979.83;;;693.15;;
50341;SDS011;76053;42.682;23.286;2024-02-23T15:24:46;852.85;;;625.10;;
50341;SDS011;76053;42.682;23.286;2024-02-23T15:27:47;698.10;;;524.00;;
50341;SDS011;76053;42.682;23.286;2024-02-23T15:30:47;649.60;;;496.05;;
50341;SDS011;76053;42.682;23.286;2024-02-23T15:33:48;567.90;;;415.63;;
50341;SDS011;76053;42.682;23.286;2024-02-23T15:36:49;479.20;;;356.92;;
50341;SDS011;76053;42.682;23.286;2024-02-23T15:39:49;392.23;;;286.30;;
50341;SDS011;76053;42.682;23.286;2024-02-23T15:42:49;311.05;;;224.82;;
50341;SDS011;76053;42.682;23.286;2024-02-23T15:45:50;249.02;;;181.60;;
50341;SDS011;76053;42.682;23.286;2024-02-23T15:48:50;187.65;;;135.50;;
50341;SDS011;76053;42.682;23.286;2024-02-23T15:51:51;125.50;;;89.47;;
50341;SDS011;76053;42.682;23.286;2024-02-23T15:54:51;950.47;;;764.30;;
50341;SDS011;76053;42.682;23.286;2024-02-23T15:57:52;915.35;;;733.40;;
50341;SDS011;76053;42.682;23.286;2024-02-23T16:00:53;467.92;;;410.73;;
50341;SDS011;76053;42.682;23.286;2024-02-23T16:03:53;274.75;;;233.20;;
50341;SDS011;76053;42.682;23.286;2024-02-23T16:06:54;148.65;;;121.40;;
50341;SDS011;76053;42.682;23.286;2024-02-23T16:09:54;90.93;;;72.15;;
50341;SDS011;76053;42.682;23.286;2024-02-23T16:12:55;55.08;;;45.22;;
50341;SDS011;76053;42.682;23.286;2024-02-23T16:15:56;34.67;;;27.23;;
50341;SDS011;76053;42.682;23.286;2024-02-23T16:18:56;18.65;;;16.73;;
50341;SDS011;76053;42.682;23.286;2024-02-23T16:21:56;12.80;;;11.60;;
50341;SDS011;76053;42.682;23.286;2024-02-23T16:24:57;11.38;;;10.00;;
50341;SDS011;76053;42.682;23.286;2024-02-23T16:27:57;625.33;;;507.73;;
50341;SDS011;76053;42.682;23.286;2024-02-23T16:30:57;766.25;;;593.90;;
50341;SDS011;76053;42.682;23.286;2024-02-23T16:33:58;518.28;;;416.10;;
50341;SDS011;76053;42.682;23.286;2024-02-23T16:36:58;160.43;;;123.10;;
50341;SDS011;76053;42.682;23.286;2024-02-23T16:39:59;87.53;;;65.20;;
50341;SDS011;76053;42.682;23.286;2024-02-23T16:42:59;287.00;;;224.20;;
50341;SDS011;76053;42.682;23.286;2024-02-23T16:45:59;103.75;;;76.22;;
50341;SDS011;76053;42.682;23.286;2024-02-23T16:49:00;42.22;;;34.40;;
50341;SDS011;76053;42.682;23.286;2024-02-23T16:52:00;22.92;;;17.65;;
50341;SDS011;76053;42.682;23.286;2024-02-23T16:55:01;14.35;;;12.80;;
50341;SDS011;76053;42.682;23.286;2024-02-23T16:58:01;11.27;;;10.15;;
50341;SDS011;76053;42.682;23.286;2024-02-23T17:01:05;10.90;;;9.80;;
50341;SDS011;76053;42.682;23.286;2024-02-23T17:04:06;728.50;;;562.78;;
50341;SDS011;76053;42.682;23.286;2024-02-23T17:07:06;833.97;;;630.85;;